Terminal Aerodrome Forecast
Issued by NWS

Home | Current Version | Previous Version | Graphics & Text | Print | Product List | Glossary On
Versions: 1 2 3 4 5 6 7 8 9 10 11 12 13 14 15 16 17 18 19
088
FTUS43 KGRB 250525
TAFATW
TAF
KATW 250525Z 2506/2606 32003KT P6SM SCT050
     FM250900 03005KT P6SM SCT006
      TEMPO 2510/2513 3SM BR BKN006
     FM251500 08009G15KT P6SM SCT025 BKN250
     FM260100 09007KT 5SM -SHRA BR SCT010 OVC020
      TEMPO 2602/2606 2SM +TSRA OVC020CB=

USA.gov is the U.S. government's official web portal to all federal, state and local government web resources and services.